createdAt,value
2018-11-27T00:00:03.460Z,-2.98
2018-11-27T00:01:13.638Z,-2.99
2018-11-27T00:02:23.804Z,-2.99
2018-11-27T00:03:33.963Z,-3.02
2018-11-27T00:04:44.178Z,-2.89
2018-11-27T00:05:54.347Z,-2.86
2018-11-27T00:07:04.515Z,-2.89
2018-11-27T00:08:14.674Z,-2.75
2018-11-27T00:09:24.833Z,-2.72
2018-11-27T00:10:35.042Z,-2.72
2018-11-27T00:11:45.201Z,-2.69
2018-11-27T00:12:55.359Z,-2.69
2018-11-27T00:14:05.533Z,-2.66
2018-11-27T00:15:15.697Z,-2.73
2018-11-27T00:16:25.962Z,-2.73
2018-11-27T00:17:36.130Z,-2.66
2018-11-27T00:18:46.288Z,-2.7
2018-11-27T00:19:56.449Z,-2.63
2018-11-27T00:21:06.614Z,-2.72
2018-11-27T00:22:16.927Z,-2.72
2018-11-27T00:23:27.087Z,-2.78
2018-11-27T00:24:37.245Z,-2.78
2018-11-27T00:25:47.407Z,-2.8
2018-11-27T00:26:57.578Z,-2.73
2018-11-27T00:28:07.842Z,-2.8
2018-11-27T00:29:17.999Z,-2.73
2018-11-27T00:30:28.161Z,-2.76
2018-11-27T00:31:38.321Z,-2.75
2018-11-27T00:32:48.486Z,-2.86
2018-11-27T00:33:58.794Z,-2.78
2018-11-27T00:35:08.979Z,-2.84
2018-11-27T00:36:19.150Z,-2.91
2018-11-27T00:37:29.320Z,-2.84
2018-11-27T00:38:39.477Z,-2.73
2018-11-27T00:39:49.693Z,-2.78
2018-11-27T00:40:59.860Z,-2.78
2018-11-27T00:42:10.019Z,-2.78
2018-11-27T00:43:20.177Z,-2.78
2018-11-27T00:44:30.335Z,-2.89
2018-11-27T00:45:40.648Z,-2.89
2018-11-27T00:46:50.813Z,-2.83
2018-11-27T00:48:00.975Z,-2.73
2018-11-27T00:49:11.145Z,-2.78
2018-11-27T00:50:21.315Z,-2.75
2018-11-27T00:51:31.529Z,-2.73
2018-11-27T00:52:41.694Z,-2.7
2018-11-27T00:53:51.586Z,-2.83
2018-11-27T00:55:03.708Z,-2.68
2018-11-27T00:56:13.878Z,-2.7
2018-11-27T00:57:24.092Z,-2.68
2018-11-27T00:58:34.251Z,-2.65
2018-11-27T00:59:44.408Z,-2.68
2018-11-27T01:00:54.568Z,-2.72
2018-11-27T01:02:04.732Z,-2.62
2018-11-27T01:03:14.995Z,-2.7
2018-11-27T01:04:25.156Z,-2.63
2018-11-27T01:05:35.320Z,-2.68
2018-11-27T01:06:45.488Z,-2.65
2018-11-27T01:07:55.647Z,-2.65
2018-11-27T01:09:05.995Z,-2.7
2018-11-27T01:10:16.166Z,-2.61
2018-11-27T01:11:26.327Z,-2.68
2018-11-27T01:12:36.493Z,-2.55
2018-11-27T01:13:46.656Z,-2.61
2018-11-27T01:14:56.928Z,-2.61
2018-11-27T01:16:07.093Z,-2.58
2018-11-27T01:17:17.252Z,-2.54
2018-11-27T01:18:27.410Z,-2.61
2018-11-27T01:19:37.573Z,-2.57
2018-11-27T01:20:47.872Z,-2.61
2018-11-27T01:21:57.772Z,-2.62
2018-11-27T01:23:07.931Z,-2.62
2018-11-27T01:24:18.093Z,-2.68
2018-11-27T01:25:28.254Z,-2.8
2018-11-27T01:26:38.562Z,-2.87
2018-11-27T01:27:48.729Z,-2.84
2018-11-27T01:28:58.895Z,-2.89
2018-11-27T01:30:09.052Z,-2.98
2018-11-27T01:31:19.216Z,-2.96
2018-11-27T01:32:29.529Z,-3.01
2018-11-27T01:33:39.694Z,-3.09
2018-11-27T01:34:49.853Z,-2.94
2018-11-27T01:36:00.060Z,-3.04
2018-11-27T01:37:10.219Z,-3.09
2018-11-27T01:38:20.530Z,-3.09
2018-11-27T01:39:30.699Z,-3.11
2018-11-27T01:40:40.857Z,-2.99
2018-11-27T01:41:51.028Z,-3.11
2018-11-27T01:43:01.195Z,-3.08
2018-11-27T01:44:11.500Z,-3.11
2018-11-27T01:45:21.667Z,-3.09
2018-11-27T01:46:31.851Z,-3.08
2018-11-27T01:47:42.013Z,-3.17
2018-11-27T01:48:52.178Z,-3.2
2018-11-27T01:50:02.395Z,-3.09
2018-11-27T01:51:12.556Z,-3.17
2018-11-27T01:52:22.721Z,-3.27
2018-11-27T01:53:32.884Z,-3.23
2018-11-27T01:54:43.046Z,-3.37
2018-11-27T01:55:53.351Z,-3.4
2018-11-27T01:57:03.515Z,-3.41
2018-11-27T01:58:13.685Z,-3.37
2018-11-27T01:59:23.847Z,-3.4
2018-11-27T02:00:34.005Z,-3.44
2018-11-27T02:01:44.328Z,-3.33
2018-11-27T02:02:54.498Z,-3.43
2018-11-27T02:04:04.664Z,-3.4
2018-11-27T02:05:14.826Z,-3.36
2018-11-27T02:06:24.984Z,-3.41
2018-11-27T02:07:35.351Z,-3.38
2018-11-27T02:08:45.518Z,-3.4
2018-11-27T02:09:55.680Z,-3.36
2018-11-27T02:11:05.846Z,-3.43
2018-11-27T02:12:16.027Z,-3.51
2018-11-27T02:13:26.238Z,-3.48
2018-11-27T02:14:36.398Z,-3.56
2018-11-27T02:15:46.292Z,-3.59
2018-11-27T02:16:56.454Z,-3.59
2018-11-27T02:18:06.616Z,-3.59
2018-11-27T02:19:16.937Z,-3.69
2018-11-27T02:20:27.092Z,-3.65
2018-11-27T02:21:37.250Z,-3.74
2018-11-27T02:22:47.416Z,-3.74
2018-11-27T02:23:57.578Z,-3.75
2018-11-27T02:25:07.895Z,-3.78
2018-11-27T02:26:17.785Z,-3.85
2018-11-27T02:27:27.946Z,-3.87
2018-11-27T02:28:38.104Z,-3.84
2018-11-27T02:29:48.273Z,-3.75
2018-11-27T02:30:58.485Z,-3.78
2018-11-27T02:32:08.658Z,-3.8
2018-11-27T02:33:18.817Z,-3.8
2018-11-27T02:34:28.979Z,-3.78
2018-11-27T02:35:39.144Z,-3.74
2018-11-27T02:36:49.399Z,-3.8
2018-11-27T02:37:59.567Z,-3.77
2018-11-27T02:39:09.743Z,-3.77
2018-11-27T02:40:19.915Z,-3.8
2018-11-27T02:41:30.124Z,-3.77
2018-11-27T02:42:40.439Z,-3.77
2018-11-27T02:43:50.603Z,-3.74
2018-11-27T02:45:00.760Z,-3.68
2018-11-27T02:46:10.921Z,-3.71
2018-11-27T02:47:21.079Z,-3.62
2018-11-27T02:48:31.244Z,-3.62
2018-11-27T02:49:41.410Z,-3.59
2018-11-27T02:50:51.648Z,-3.61
2018-11-27T02:52:01.819Z,-3.61
2018-11-27T02:53:11.976Z,-3.61
2018-11-27T02:54:22.246Z,-3.61
2018-11-27T02:55:32.423Z,-3.53
2018-11-27T02:56:42.584Z,-3.61
2018-11-27T02:57:52.762Z,-3.56
2018-11-27T02:59:02.932Z,-3.64
2018-11-27T03:00:12.939Z,-3.64
2018-11-27T03:01:23.122Z,-3.69
2018-11-27T03:02:33.290Z,-3.61
2018-11-27T03:03:43.494Z,-3.62
2018-11-27T03:04:53.672Z,-3.62
2018-11-27T03:06:03.914Z,-3.59
2018-11-27T03:07:14.081Z,-3.68
2018-11-27T03:08:25.148Z,-3.75
2018-11-27T03:09:35.333Z,-3.66
2018-11-27T03:10:45.502Z,-3.74
2018-11-27T03:11:55.827Z,-3.68
2018-11-27T03:13:05.993Z,-3.75
2018-11-27T03:14:16.158Z,-3.8
2018-11-27T03:15:26.326Z,-3.78
2018-11-27T03:16:36.485Z,-3.85
2018-11-27T03:17:46.810Z,-3.87
2018-11-27T03:18:56.987Z,-3.81
2018-11-27T03:20:07.153Z,-3.84
2018-11-27T03:21:17.342Z,-3.77
2018-11-27T03:22:27.502Z,-3.84
2018-11-27T03:23:37.722Z,-3.84
2018-11-27T03:24:47.885Z,-3.8
2018-11-27T03:25:58.051Z,-3.98
2018-11-27T03:27:08.211Z,-4.06
2018-11-27T03:28:19.487Z,-3.94
2018-11-27T03:29:29.700Z,-4.06
2018-11-27T03:30:39.905Z,-4.06
2018-11-27T03:31:50.082Z,-3.99
2018-11-27T03:33:00.323Z,-4.19
2018-11-27T03:34:10.517Z,-4.13
2018-11-27T03:35:20.741Z,-4.16
2018-11-27T03:36:30.920Z,-4.14
2018-11-27T03:37:41.099Z,-4.17
2018-11-27T03:38:52.811Z,-4.22
2018-11-27T03:40:02.985Z,-4.17
2018-11-27T03:41:13.300Z,-4.14
2018-11-27T03:42:23.488Z,-4.23
2018-11-27T03:43:33.657Z,-4.04
2018-11-27T03:44:43.825Z,-4.06
2018-11-27T03:45:53.986Z,-4.06
2018-11-27T03:47:04.156Z,-4.14
2018-11-27T03:48:14.317Z,-4.16
2018-11-27T03:49:24.485Z,-4.19
2018-11-27T03:50:34.683Z,-4.27
2018-11-27T03:51:44.862Z,-4.24
2018-11-27T03:52:55.109Z,-4.17
2018-11-27T03:54:05.270Z,-4.26
2018-11-27T03:55:15.430Z,-4.2
2018-11-27T03:56:25.593Z,-4.19
2018-11-27T03:57:35.761Z,-4.16
2018-11-27T03:58:46.078Z,-4.16
2018-11-27T03:59:56.241Z,-4.16
2018-11-27T04:01:06.423Z,-4.17
2018-11-27T04:02:16.596Z,-4.2
2018-11-27T04:03:26.771Z,-4.2
2018-11-27T04:04:36.995Z,-4.17
2018-11-27T04:05:47.163Z,-4.14
2018-11-27T04:06:57.324Z,-4.08
2018-11-27T04:08:07.498Z,-3.99
2018-11-27T04:09:17.687Z,-3.98
2018-11-27T04:10:27.909Z,-3.96
2018-11-27T04:11:38.076Z,-3.94
2018-11-27T04:12:48.240Z,-3.87
2018-11-27T04:13:58.415Z,-4.02
2018-11-27T04:15:08.585Z,-3.88
2018-11-27T04:16:18.911Z,-3.95
2018-11-27T04:17:29.084Z,-3.94
2018-11-27T04:18:39.271Z,-3.95
2018-11-27T04:19:49.174Z,-3.88
2018-11-27T04:20:59.346Z,-3.99
2018-11-27T04:22:09.660Z,-3.95
2018-11-27T04:23:19.833Z,-3.87
2018-11-27T04:24:30.010Z,-3.88
2018-11-27T04:25:40.232Z,-3.84
2018-11-27T04:26:50.399Z,-3.96
2018-11-27T04:28:00.628Z,-3.85
2018-11-27T04:29:10.799Z,-3.88
2018-11-27T04:30:20.975Z,-3.91
2018-11-27T04:31:31.221Z,-3.94
2018-11-27T04:32:41.419Z,-3.96
2018-11-27T04:33:51.668Z,-3.87
2018-11-27T04:35:01.843Z,-3.99
2018-11-27T04:36:12.025Z,-4.02
2018-11-27T04:37:22.197Z,-3.95
2018-11-27T04:38:32.358Z,-3.87
2018-11-27T04:39:42.639Z,-3.9
2018-11-27T04:40:52.903Z,-3.9
2018-11-27T04:42:03.067Z,-3.99
2018-11-27T04:43:13.243Z,-3.87
2018-11-27T04:44:23.427Z,-3.91
2018-11-27T04:45:33.718Z,-4.05
2018-11-27T04:46:43.890Z,-3.94
2018-11-27T04:47:54.065Z,-3.99
2018-11-27T04:49:03.971Z,-3.95
2018-11-27T04:50:14.138Z,-4.02
2018-11-27T04:51:24.368Z,-3.87
2018-11-27T04:52:34.537Z,-4.06
2018-11-27T04:53:44.703Z,-4.02
2018-11-27T04:54:54.864Z,-4.01
2018-11-27T04:56:05.035Z,-3.94
2018-11-27T04:57:15.247Z,-4.02
2018-11-27T04:58:25.424Z,-3.96
2018-11-27T04:59:35.597Z,-3.95
2018-11-27T05:00:45.758Z,-3.94
2018-11-27T05:01:55.653Z,-3.9
2018-11-27T05:03:05.869Z,-3.95
2018-11-27T05:04:16.037Z,-3.96
2018-11-27T05:05:26.219Z,-3.9
2018-11-27T05:06:36.439Z,-3.99
2018-11-27T05:07:46.601Z,-3.94
2018-11-27T05:08:56.914Z,-3.9
2018-11-27T05:10:07.081Z,-3.96
2018-11-27T05:11:17.244Z,-3.88
2018-11-27T05:12:27.408Z,-3.98
2018-11-27T05:13:37.564Z,-3.95
2018-11-27T05:14:47.824Z,-4.01
2018-11-27T05:15:57.713Z,-3.94
2018-11-27T05:17:07.609Z,-3.98
2018-11-27T05:18:17.768Z,-3.96
2018-11-27T05:19:27.929Z,-3.99
2018-11-27T05:20:38.205Z,-3.95
2018-11-27T05:21:48.371Z,-4.02
2018-11-27T05:22:58.529Z,-3.96
2018-11-27T05:24:08.687Z,-3.88
2018-11-27T05:25:18.844Z,-3.95
2018-11-27T05:26:29.070Z,-3.98
2018-11-27T05:27:39.228Z,-4.01
2018-11-27T05:28:49.450Z,-4.04
2018-11-27T05:29:59.606Z,-3.99
2018-11-27T05:31:09.769Z,-4.06
2018-11-27T05:32:20.084Z,-3.87
2018-11-27T05:33:30.244Z,-3.9
2018-11-27T05:34:40.401Z,-3.87
2018-11-27T05:35:50.609Z,-3.88
2018-11-27T05:37:00.774Z,-3.9
2018-11-27T05:38:10.990Z,-4.02
2018-11-27T05:39:21.153Z,-3.9
2018-11-27T05:40:31.321Z,-4.05
2018-11-27T05:41:41.477Z,-3.99
2018-11-27T05:42:51.640Z,-3.96
2018-11-27T05:44:01.949Z,-3.98
2018-11-27T05:45:12.114Z,-3.98
2018-11-27T05:46:22.277Z,-3.94
2018-11-27T05:47:32.456Z,-3.88
2018-11-27T05:48:42.619Z,-3.9
2018-11-27T05:49:52.884Z,-3.94
2018-11-27T05:51:03.051Z,-3.95
2018-11-27T05:52:13.950Z,-3.88
2018-11-27T05:53:24.105Z,-3.94
2018-11-27T05:54:34.269Z,-3.9
2018-11-27T05:55:44.584Z,-3.91
2018-11-27T05:56:54.742Z,-3.94
2018-11-27T05:58:04.905Z,-3.9
2018-11-27T05:59:15.071Z,-3.96
2018-11-27T06:00:25.240Z,-3.84
2018-11-27T06:01:35.550Z,-3.88
2018-11-27T06:02:45.711Z,-3.75
2018-11-27T06:03:55.877Z,-3.77
2018-11-27T06:05:06.033Z,-3.75
2018-11-27T06:06:16.198Z,-3.68
2018-11-27T06:07:26.506Z,-3.71
2018-11-27T06:08:36.678Z,-3.68
2018-11-27T06:09:46.837Z,-3.8
2018-11-27T06:10:56.999Z,-3.75
2018-11-27T06:12:07.164Z,-3.83
2018-11-27T06:13:17.473Z,-3.81
2018-11-27T06:14:27.648Z,-3.91
2018-11-27T06:15:37.816Z,-3.85
2018-11-27T06:16:47.988Z,-3.88
2018-11-27T06:17:58.146Z,-3.85
2018-11-27T06:19:08.192Z,-3.94
2018-11-27T06:20:18.084Z,-3.94
2018-11-27T06:21:28.239Z,-3.88
2018-11-27T06:22:39.631Z,-3.84
2018-11-27T06:23:49.527Z,-3.95
2018-11-27T06:24:59.837Z,-3.87
2018-11-27T06:26:09.997Z,-3.74
2018-11-27T06:27:20.155Z,-3.74
2018-11-27T06:28:30.315Z,-3.75
2018-11-27T06:29:40.482Z,-3.75
2018-11-27T06:30:50.751Z,-3.69
2018-11-27T06:32:00.912Z,-3.75
2018-11-27T06:33:11.071Z,-3.8
2018-11-27T06:34:21.230Z,-3.75
2018-11-27T06:35:31.392Z,-3.75
2018-11-27T06:36:41.665Z,-3.71
2018-11-27T06:37:51.833Z,-3.84
2018-11-27T06:39:01.989Z,-3.84
2018-11-27T06:40:12.147Z,-3.84
2018-11-27T06:41:22.305Z,-3.91
2018-11-27T06:42:32.514Z,-3.91
2018-11-27T06:43:42.671Z,-3.9
2018-11-27T06:44:52.834Z,-3.91
2018-11-27T06:46:02.992Z,-3.81
2018-11-27T06:47:12.888Z,-3.91
2018-11-27T06:48:23.150Z,-3.8
2018-11-27T06:49:33.306Z,-3.9
2018-11-27T06:50:43.470Z,-3.88
2018-11-27T06:51:53.631Z,-3.88
2018-11-27T06:53:03.870Z,-3.94
2018-11-27T06:54:14.083Z,-3.91
2018-11-27T06:55:24.258Z,-3.88
2018-11-27T06:56:34.422Z,-3.88
2018-11-27T06:57:44.601Z,-3.9
2018-11-27T06:58:54.774Z,-3.87
2018-11-27T07:00:05.108Z,-3.91
2018-11-27T07:01:15.276Z,-3.87
2018-11-27T07:02:25.444Z,-3.99
2018-11-27T07:03:35.600Z,-4.02
2018-11-27T07:04:45.762Z,-3.98
2018-11-27T07:05:55.926Z,-3.99
2018-11-27T07:07:06.085Z,-4.01
2018-11-27T07:08:16.246Z,-3.96
2018-11-27T07:09:26.413Z,-4.01
2018-11-27T07:10:36.574Z,-4.02
2018-11-27T07:11:46.791Z,-4.04
2018-11-27T07:12:56.954Z,-4.05
2018-11-27T07:14:07.126Z,-4.14
2018-11-27T07:15:17.340Z,-4.19
2018-11-27T07:16:27.510Z,-4.13
2018-11-27T07:17:37.823Z,-4.14
2018-11-27T07:18:47.984Z,-4.14
2018-11-27T07:19:58.145Z,-4.2
2018-11-27T07:21:08.319Z,-4.26
2018-11-27T07:22:18.476Z,-4.26
2018-11-27T07:23:28.687Z,-4.17
2018-11-27T07:24:38.851Z,-4.14
2018-11-27T07:25:49.006Z,-4.2
2018-11-27T07:26:59.171Z,-4.14
2018-11-27T07:28:09.333Z,-4.17
2018-11-27T07:29:19.649Z,-4.17
2018-11-27T07:30:29.824Z,-4.08
2018-11-27T07:31:39.760Z,-4.02
2018-11-27T07:32:49.654Z,-4.05
2018-11-27T07:33:59.842Z,-4.05
2018-11-27T07:35:10.007Z,-4.02
2018-11-27T07:36:20.173Z,-4.01
2018-11-27T07:37:30.330Z,-3.96
2018-11-27T07:38:40.494Z,-3.87
2018-11-27T07:39:50.662Z,-3.95
2018-11-27T07:41:00.874Z,-3.9
2018-11-27T07:42:11.038Z,-3.96
2018-11-27T07:43:21.202Z,-3.88
2018-11-27T07:44:31.365Z,-3.94
2018-11-27T07:45:41.524Z,-3.96
2018-11-27T07:46:51.736Z,-3.98
2018-11-27T07:48:01.896Z,-4.04
2018-11-27T07:49:12.059Z,-4.04
2018-11-27T07:50:22.225Z,-4.05
2018-11-27T07:51:32.388Z,-4.02
2018-11-27T07:52:42.596Z,-4.05
2018-11-27T07:53:52.756Z,-4.05
2018-11-27T07:55:02.918Z,-4.02
2018-11-27T07:56:13.079Z,-4.08
2018-11-27T07:57:23.236Z,-4.08
2018-11-27T07:58:33.542Z,-4.05
2018-11-27T07:59:43.706Z,-4.08
2018-11-27T08:00:53.866Z,-4.06
2018-11-27T08:02:04.034Z,-4.19
2018-11-27T08:03:14.197Z,-4.16
2018-11-27T08:04:24.512Z,-4.17
2018-11-27T08:05:34.672Z,-4.2
2018-11-27T08:06:44.835Z,-4.19
2018-11-27T08:07:54.997Z,-4.19
2018-11-27T08:09:05.163Z,-4.17
2018-11-27T08:10:15.475Z,-4.06
2018-11-27T08:11:25.638Z,-4.05
2018-11-27T08:12:35.802Z,-4.05
2018-11-27T08:13:45.972Z,-4.02
2018-11-27T08:14:56.135Z,-4.17
2018-11-27T08:16:06.347Z,-4.17
2018-11-27T08:17:16.509Z,-4.16
2018-11-27T08:18:26.677Z,-4.16
2018-11-27T08:19:36.889Z,-4.23
2018-11-27T08:20:47.061Z,-4.19
2018-11-27T08:21:57.221Z,-4.23
2018-11-27T08:23:07.387Z,-4.17
2018-11-27T08:24:17.562Z,-4.17
2018-11-27T08:25:27.733Z,-4.17
2018-11-27T08:26:37.906Z,-4.12
2018-11-27T08:27:48.118Z,-4.19
2018-11-27T08:28:58.277Z,-4.17
2018-11-27T08:30:08.457Z,-4.19
2018-11-27T08:31:18.620Z,-4.19
2018-11-27T08:32:28.787Z,-4.17
2018-11-27T08:33:39.096Z,-4.16
2018-11-27T08:34:49.264Z,-4.16
2018-11-27T08:35:59.422Z,-4.08
2018-11-27T08:37:09.587Z,-4.06
2018-11-27T08:38:19.746Z,-4.01
2018-11-27T08:39:29.964Z,-3.98
2018-11-27T08:40:40.127Z,-4.02
2018-11-27T08:41:50.289Z,-3.95
2018-11-27T08:43:00.452Z,-3.87
2018-11-27T08:44:10.612Z,-3.91
2018-11-27T08:45:20.929Z,-3.94
2018-11-27T08:46:31.635Z,-3.91
2018-11-27T08:47:41.800Z,-3.8
2018-11-27T08:48:51.974Z,-3.87
2018-11-27T08:50:02.133Z,-3.77
2018-11-27T08:51:12.454Z,-3.74
2018-11-27T08:52:22.610Z,-3.71
2018-11-27T08:53:32.768Z,-3.69
2018-11-27T08:54:42.941Z,-3.71
2018-11-27T08:55:53.104Z,-3.75
2018-11-27T08:57:03.318Z,-3.66
2018-11-27T08:58:13.216Z,-3.64
2018-11-27T08:59:23.382Z,-3.61
2018-11-27T09:00:33.279Z,-3.58
2018-11-27T09:01:43.440Z,-3.53
2018-11-27T09:02:53.756Z,-3.46
2018-11-27T09:04:03.964Z,-3.47
2018-11-27T09:05:14.120Z,-3.46
2018-11-27T09:06:24.296Z,-3.41
2018-11-27T09:07:34.500Z,-3.43
2018-11-27T09:08:44.879Z,-3.37
2018-11-27T09:09:55.041Z,-3.22
2018-11-27T09:11:05.210Z,-3.2
2018-11-27T09:12:15.377Z,-3.22
2018-11-27T09:13:25.540Z,-3.23
2018-11-27T09:14:35.750Z,-3.19
2018-11-27T09:15:45.908Z,-3.15
2018-11-27T09:16:56.071Z,-3.22
2018-11-27T09:18:06.229Z,-3.14
2018-11-27T09:19:16.388Z,-3.12
2018-11-27T09:20:26.648Z,-3.11
2018-11-27T09:21:36.583Z,-3.11
2018-11-27T09:22:46.760Z,-3.17
2018-11-27T09:23:56.923Z,-3.11
2018-11-27T09:25:07.092Z,-3.11
2018-11-27T09:26:17.431Z,-3.12
2018-11-27T09:27:27.602Z,-3.19
2018-11-27T09:28:37.777Z,-3.15
2018-11-27T09:29:47.953Z,-3.11
2018-11-27T09:30:58.114Z,-3.09
2018-11-27T09:32:08.432Z,-3.2
2018-11-27T09:33:18.331Z,-3.14
2018-11-27T09:34:28.624Z,-3.22
2018-11-27T09:35:38.806Z,-3.27
2018-11-27T09:36:48.969Z,-3.22
2018-11-27T09:37:59.181Z,-3.3
2018-11-27T09:39:09.346Z,-3.29
2018-11-27T09:40:19.505Z,-3.27
2018-11-27T09:41:29.669Z,-3.23
2018-11-27T09:42:39.831Z,-3.36
2018-11-27T09:43:50.004Z,-3.38
2018-11-27T09:45:00.165Z,-3.33
2018-11-27T09:46:10.326Z,-3.37
2018-11-27T09:47:20.498Z,-3.41
2018-11-27T09:48:30.663Z,-3.43
2018-11-27T09:49:40.975Z,-3.37
2018-11-27T09:50:51.139Z,-3.37
2018-11-27T09:52:01.299Z,-3.37
2018-11-27T09:53:11.468Z,-3.38
2018-11-27T09:54:21.640Z,-3.41
2018-11-27T09:55:31.955Z,-3.4
2018-11-27T09:56:42.116Z,-3.36
2018-11-27T09:57:52.279Z,-3.4
2018-11-27T09:59:07.090Z,-3.44
2018-11-27T10:00:17.258Z,-3.36
2018-11-27T10:01:27.475Z,-3.47
2018-11-27T10:02:37.635Z,-3.44
2018-11-27T10:03:47.795Z,-3.44
2018-11-27T10:04:57.954Z,-3.46
2018-11-27T10:06:08.115Z,-3.48
2018-11-27T10:07:18.391Z,-3.53
2018-11-27T10:08:28.559Z,-3.51
2018-11-27T10:09:39.942Z,-3.47
2018-11-27T10:10:50.202Z,-3.43
2018-11-27T10:12:00.373Z,-3.41
2018-11-27T10:13:10.641Z,-3.46
2018-11-27T10:14:35.400Z,-3.37
2018-11-27T10:15:45.562Z,-3.37
2018-11-27T10:16:55.738Z,-3.37
2018-11-27T10:18:05.951Z,-3.37
2018-11-27T10:19:16.112Z,-3.36
2018-11-27T10:20:26.280Z,-3.38
2018-11-27T10:21:36.439Z,-3.38
2018-11-27T10:22:46.612Z,-3.38
2018-11-27T10:23:56.876Z,-3.38
2018-11-27T10:25:07.039Z,-3.36
2018-11-27T10:26:17.208Z,-3.2
2018-11-27T10:27:27.381Z,-3.09
2018-11-27T10:28:37.546Z,-3.09
2018-11-27T10:29:47.720Z,-2.91
2018-11-27T10:30:57.892Z,-2.84
2018-11-27T10:32:08.055Z,-2.75
2018-11-27T10:33:18.225Z,-2.68
2018-11-27T10:34:28.438Z,-2.65
2018-11-27T10:35:38.700Z,-2.51
2018-11-27T10:36:48.871Z,-2.42
2018-11-27T10:37:59.028Z,-2.45
2018-11-27T10:39:09.245Z,-2.37
2018-11-27T10:40:19.412Z,-2.4
2018-11-27T10:41:29.683Z,-2.29
2018-11-27T10:42:39.884Z,-2.32
2018-11-27T10:43:50.186Z,-2.23
2018-11-27T10:45:00.363Z,-2.2
2018-11-27T10:46:10.608Z,-2.25
2018-11-27T10:47:20.893Z,-2.1
2018-11-27T10:48:31.059Z,-2
2018-11-27T10:49:41.224Z,-1.9
2018-11-27T10:50:51.391Z,-1.9
2018-11-27T10:52:01.553Z,-1.84
2018-11-27T10:53:11.840Z,-1.74
2018-11-27T10:54:22.005Z,-1.78
2018-11-27T10:55:32.167Z,-1.57
2018-11-27T10:56:42.338Z,-1.5
2018-11-27T10:57:52.512Z,-1.38
2018-11-27T10:59:02.780Z,-1.38
2018-11-27T11:00:12.954Z,-1.42
2018-11-27T11:01:23.123Z,-1.48
2018-11-27T11:02:33.290Z,-1.38
2018-11-27T11:03:43.465Z,-1.42
2018-11-27T11:04:54.094Z,-1.18
2018-11-27T11:06:04.286Z,-1.18
2018-11-27T11:07:15.680Z,-1.01
2018-11-27T11:08:25.896Z,-0.81
2018-11-27T11:09:36.094Z,-0.63
2018-11-27T11:10:46.275Z,-0.64
2018-11-27T11:12:01.711Z,-0.51
2018-11-27T11:13:11.883Z,-0.38
2018-11-27T11:14:22.054Z,-0.39
2018-11-27T11:15:32.308Z,-0.39
2018-11-27T11:16:42.580Z,-0.23
2018-11-27T11:17:52.752Z,-0.3
2018-11-27T11:19:02.649Z,-0.35
2018-11-27T11:20:12.822Z,-0.31
2018-11-27T11:21:22.991Z,-0.36
2018-11-27T11:22:33.162Z,-0.33
2018-11-27T11:23:43.333Z,-0.13
2018-11-27T11:24:53.509Z,-0.18
2018-11-27T11:26:03.677Z,-0.3
2018-11-27T11:27:13.845Z,-0.31
2018-11-27T11:28:24.114Z,-0.38
2018-11-27T11:29:34.284Z,-0.2
2018-11-27T11:30:44.452Z,-0.17
2018-11-27T11:31:54.621Z,-0.05
2018-11-27T11:33:04.804Z,0.08
2018-11-27T11:34:14.977Z,0.2
2018-11-27T11:35:25.152Z,0.29
2018-11-27T11:36:35.321Z,0.33
2018-11-27T11:37:45.492Z,0.15
2018-11-27T11:38:55.663Z,0.31
2018-11-27T11:40:05.933Z,0.4
2018-11-27T11:41:16.115Z,0.49
2018-11-27T11:42:26.325Z,0.51
2018-11-27T11:43:36.499Z,0.76
2018-11-27T11:44:46.675Z,0.96
2018-11-27T11:45:56.948Z,1.14
2018-11-27T11:47:07.118Z,1
2018-11-27T11:48:17.288Z,1.16
2018-11-27T11:49:27.471Z,1.27
2018-11-27T11:50:37.646Z,1.32
2018-11-27T11:51:47.814Z,1.5
2018-11-27T11:52:57.982Z,1.64
2018-11-27T11:54:08.159Z,1.89
2018-11-27T11:55:18.331Z,1.95
2018-11-27T11:56:28.503Z,2.05
2018-11-27T11:57:38.725Z,2.15
2018-11-27T11:58:48.899Z,2.14
2018-11-27T11:59:59.075Z,2.21
2018-11-27T12:01:09.261Z,2.33
2018-11-27T12:02:19.441Z,2.52
2018-11-27T12:03:29.722Z,2.59
2018-11-27T12:04:39.907Z,2.59
2018-11-27T12:05:50.076Z,2.64
2018-11-27T12:07:00.244Z,2.61
2018-11-27T12:08:10.412Z,2.97
2018-11-27T12:09:20.685Z,3.19
2018-11-27T12:10:30.865Z,3.64
2018-11-27T12:11:41.040Z,3.63
2018-11-27T12:12:51.233Z,3.66
2018-11-27T12:14:01.405Z,3.52
2018-11-27T12:15:11.674Z,3.41
2018-11-27T12:16:21.849Z,3.37
2018-11-27T12:17:32.028Z,3.34
2018-11-27T12:18:42.212Z,3.37
2018-11-27T12:19:52.384Z,3.43
2018-11-27T12:21:02.655Z,3.37
2018-11-27T12:22:12.830Z,3.37
2018-11-27T12:23:23.019Z,3.36
2018-11-27T12:24:33.197Z,3.36
2018-11-27T12:25:43.365Z,3.33
2018-11-27T12:26:53.646Z,3.45
2018-11-27T12:28:03.826Z,3.43
2018-11-27T12:29:13.995Z,3.46
2018-11-27T12:30:24.171Z,3.33
2018-11-27T12:31:34.346Z,3.41
2018-11-27T12:32:44.571Z,3.46
2018-11-27T12:33:54.747Z,3.49
2018-11-27T12:35:04.933Z,3.36
2018-11-27T12:36:15.165Z,3.48
2018-11-27T12:37:25.397Z,3.52
2018-11-27T12:38:35.673Z,3.49
2018-11-27T12:39:45.845Z,3.46
2018-11-27T12:40:56.044Z,3.56
2018-11-27T12:42:06.225Z,3.56
2018-11-27T12:43:17.403Z,3.74
2018-11-27T12:44:27.676Z,4.02
2018-11-27T12:45:37.857Z,4.27
2018-11-27T12:46:48.031Z,4.49
2018-11-27T12:47:58.212Z,4.64
2018-11-27T12:49:08.388Z,4.84
2018-11-27T12:50:18.559Z,4.92
2018-11-27T12:51:28.727Z,4.75
2018-11-27T12:52:38.903Z,4.56
2018-11-27T12:53:49.074Z,4.48
2018-11-27T12:54:59.246Z,4.42
2018-11-27T12:56:09.422Z,4.3
2018-11-27T12:57:19.327Z,4.42
2018-11-27T12:58:29.228Z,4.49
2018-11-27T12:59:39.975Z,4.5
2018-11-27T13:00:50.210Z,4.7
2018-11-27T13:02:00.485Z,4.94
2018-11-27T13:03:10.667Z,5.01
2018-11-27T13:04:20.845Z,5.28
2018-11-27T13:05:31.021Z,5.52
2018-11-27T13:06:41.197Z,5.49
2018-11-27T13:07:51.468Z,5.43
2018-11-27T13:09:01.640Z,5.36
2018-11-27T13:10:11.836Z,5.1
2018-11-27T13:11:22.024Z,4.79
2018-11-27T13:12:32.969Z,4.48
2018-11-27T13:13:44.304Z,4.48
2018-11-27T13:14:54.481Z,4.06
2018-11-27T13:16:04.654Z,3.77
2018-11-27T13:17:14.831Z,3.64
2018-11-27T13:18:25.010Z,3.36
2018-11-27T13:19:35.195Z,3.06
2018-11-27T13:20:45.367Z,2.94
2018-11-27T13:21:55.539Z,2.61
2018-11-27T13:23:05.841Z,2.37
2018-11-27T13:24:16.012Z,2.05
2018-11-27T13:25:27.347Z,1.93
2018-11-27T13:26:37.521Z,1.6
2018-11-27T13:27:47.715Z,1.36
2018-11-27T13:28:57.890Z,1.14
2018-11-27T13:30:08.054Z,1.07
2018-11-27T13:31:18.230Z,0.92
2018-11-27T13:32:28.407Z,0.81
2018-11-27T13:33:38.574Z,0.64
2018-11-27T13:34:57.202Z,0.4
2018-11-27T13:36:07.372Z,0.31
2018-11-27T13:37:17.594Z,0.18
2018-11-27T13:38:28.716Z,0.02
2018-11-27T13:39:38.957Z,-0.06
2018-11-27T13:40:49.124Z,-0.26
2018-11-27T13:41:59.242Z,-0.38
2018-11-27T13:43:09.408Z,-0.53
2018-11-27T13:44:19.578Z,-0.57
2018-11-27T13:45:29.757Z,-0.7
2018-11-27T13:46:39.924Z,-0.75
2018-11-27T13:47:50.091Z,-0.85
2018-11-27T13:49:00.359Z,-0.97
2018-11-27T13:50:10.524Z,-1.07
2018-11-27T13:51:20.743Z,-1.17
2018-11-27T13:52:30.912Z,-1.19
2018-11-27T13:53:41.081Z,-1.29
2018-11-27T13:54:51.132Z,-1.42
2018-11-27T13:56:01.297Z,-1.38
2018-11-27T13:57:11.477Z,-1.39
2018-11-27T13:58:21.666Z,-1.48
2018-11-27T13:59:31.862Z,-1.43
2018-11-27T14:00:42.186Z,-1.6
2018-11-27T14:01:52.366Z,-1.63
2018-11-27T14:03:02.282Z,-1.69
2018-11-27T14:06:16.074Z,-1.81
2018-11-27T14:07:26.250Z,-1.79
2018-11-27T14:08:36.180Z,-1.92
2018-11-27T14:09:47.734Z,-2
2018-11-27T14:10:57.970Z,-1.97
2018-11-27T14:12:08.195Z,-2.02
2018-11-27T14:13:18.426Z,-2.13
2018-11-27T14:14:28.681Z,-2.15
2018-11-27T14:15:38.896Z,-2.17
2018-11-27T14:16:49.152Z,-2.32
2018-11-27T14:17:59.227Z,-2.37
2018-11-27T14:19:09.400Z,-2.37
2018-11-27T14:20:19.425Z,-2.5
2018-11-27T14:21:29.691Z,-2.42
2018-11-27T14:22:39.895Z,-2.51
2018-11-27T14:23:50.134Z,-2.66
2018-11-27T14:25:00.313Z,-2.69
2018-11-27T14:26:10.481Z,-2.73
2018-11-27T14:27:20.646Z,-2.9
2018-11-27T14:28:30.541Z,-2.84
2018-11-27T14:29:40.706Z,-2.9
2018-11-27T14:30:50.879Z,-2.93
2018-11-27T14:32:01.053Z,-2.93
2018-11-27T14:33:10.948Z,-2.98
2018-11-27T14:34:21.107Z,-2.98
2018-11-27T14:35:31.329Z,-3.01
2018-11-27T14:36:41.496Z,-3.05
2018-11-27T14:37:51.663Z,-2.99
2018-11-27T14:39:01.828Z,-3.05
2018-11-27T14:40:11.991Z,-3.04
2018-11-27T14:41:22.209Z,-2.94
2018-11-27T14:42:32.373Z,-2.99
2018-11-27T14:43:42.535Z,-3.04
2018-11-27T14:44:52.695Z,-3.01
2018-11-27T14:46:02.860Z,-2.96
2018-11-27T14:47:13.117Z,-3.01
2018-11-27T14:48:24.082Z,-2.99
2018-11-27T14:49:34.259Z,-2.93
2018-11-27T14:50:44.428Z,-2.98
2018-11-27T14:51:54.630Z,-2.94
2018-11-27T14:53:04.952Z,-2.99
2018-11-27T14:54:15.112Z,-2.96
2018-11-27T14:55:25.326Z,-2.94
2018-11-27T14:56:35.495Z,-3.01
2018-11-27T14:57:45.674Z,-3.01
2018-11-27T14:58:56.134Z,-3.11
2018-11-27T15:00:06.294Z,-3.07
2018-11-27T15:01:16.454Z,-3.17
2018-11-27T15:02:26.618Z,-3.19
2018-11-27T15:03:36.787Z,-3.22
2018-11-27T15:04:47.045Z,-3.36
2018-11-27T15:05:57.259Z,-3.37
2018-11-27T15:07:07.420Z,-3.46
2018-11-27T15:08:17.589Z,-3.53
2018-11-27T15:09:27.758Z,-3.59
2018-11-27T15:10:38.079Z,-3.71
2018-11-27T15:11:48.294Z,-3.75
2018-11-27T15:12:58.454Z,-3.75